createdAt,value
2018-09-07T00:01:40.155Z,59.10
2018-09-07T00:03:43.138Z,59.30
2018-09-07T00:05:46.196Z,59.60
2018-09-07T00:07:49.272Z,59.00
2018-09-07T00:09:52.260Z,58.80
2018-09-07T00:11:55.526Z,59.00
2018-09-07T00:13:58.532Z,59.20
2018-09-07T00:16:01.701Z,59.60
2018-09-07T00:18:05.097Z,60.30
2018-09-07T00:20:08.119Z,59.60
2018-09-07T00:22:11.187Z,59.90
2018-09-07T00:24:14.228Z,59.80
2018-09-07T00:26:17.375Z,60.20
2018-09-07T00:28:20.651Z,59.50
2018-09-07T00:30:23.724Z,60.10
2018-09-07T00:32:26.758Z,59.30
2018-09-07T00:34:29.797Z,59.90
2018-09-07T00:36:32.883Z,59.20
2018-09-07T00:38:35.877Z,59.40
2018-09-07T00:40:38.978Z,58.50
2018-09-07T00:42:42.021Z,58.70
2018-09-07T00:44:45.037Z,59.00
2018-09-07T00:46:48.253Z,57.60
2018-09-07T00:48:51.390Z,59.40
2018-09-07T00:50:54.606Z,58.60
2018-09-07T00:52:57.729Z,59.00
2018-09-07T00:55:00.784Z,58.90
2018-09-07T00:57:03.837Z,59.80
2018-09-07T00:59:06.870Z,59.40
2018-09-07T01:01:10.136Z,59.60
2018-09-07T01:03:13.250Z,59.40
2018-09-07T01:05:16.303Z,59.50
2018-09-07T01:07:19.349Z,60.20
2018-09-07T01:09:22.398Z,59.30
2018-09-07T01:11:25.431Z,59.40
2018-09-07T01:13:28.489Z,60.10
2018-09-07T01:15:31.765Z,61.00
2018-09-07T01:17:35.078Z,60.90
2018-09-07T01:19:38.344Z,60.80
2018-09-07T01:21:41.376Z,60.20
2018-09-07T01:23:44.419Z,60.90
2018-09-07T01:25:47.595Z,60.60
2018-09-07T01:27:51.247Z,60.40
2018-09-07T01:29:54.594Z,60.30
2018-09-07T01:31:57.619Z,60.50
2018-09-07T01:34:00.602Z,61.00
2018-09-07T01:36:03.686Z,61.20
2018-09-07T01:38:12.446Z,61.30
2018-09-07T01:40:15.503Z,61.20
2018-09-07T01:42:18.594Z,60.80
2018-09-07T01:44:21.553Z,61.40
2018-09-07T01:46:24.613Z,61.30
2018-09-07T01:48:27.641Z,61.70
2018-09-07T01:50:30.713Z,60.90
2018-09-07T01:52:33.817Z,60.20
2018-09-07T01:54:36.930Z,60.70
2018-09-07T01:56:39.961Z,60.50
2018-09-07T01:58:42.978Z,60.80
2018-09-07T02:00:46.047Z,60.50
2018-09-07T02:02:55.182Z,59.80
2018-09-07T02:04:58.183Z,59.90
2018-09-07T02:07:01.184Z,59.30
2018-09-07T02:09:06.257Z,60.10
2018-09-07T02:11:09.360Z,59.30
2018-09-07T02:13:12.422Z,60.30
2018-09-07T02:15:15.534Z,60.70
2018-09-07T02:17:18.561Z,59.80
2018-09-07T02:19:21.573Z,60.70
2018-09-07T02:21:25.085Z,59.90
2018-09-07T02:23:28.081Z,60.50
2018-09-07T02:25:31.266Z,60.80
2018-09-07T02:27:34.438Z,61.00
2018-09-07T02:29:37.446Z,61.10
2018-09-07T02:31:40.497Z,61.20
2018-09-07T02:33:43.529Z,61.60
2018-09-07T02:35:47.517Z,61.30
2018-09-07T02:37:50.572Z,62.70
2018-09-07T02:39:53.762Z,62.50
2018-09-07T02:41:56.829Z,63.00
2018-09-07T02:43:59.927Z,63.50
2018-09-07T02:46:03.039Z,63.40
2018-09-07T02:48:06.432Z,62.50
2018-09-07T02:50:09.277Z,62.90
2018-09-07T02:52:12.374Z,63.60
2018-09-07T02:54:15.381Z,64.80
2018-09-07T02:56:18.357Z,64.20
2018-09-07T02:58:21.398Z,64.30
2018-09-07T03:00:24.399Z,65.60
2018-09-07T03:02:27.454Z,66.00
2018-09-07T03:04:30.440Z,65.30
2018-09-07T03:06:33.432Z,65.50
2018-09-07T03:08:36.725Z,64.50
2018-09-07T03:10:39.890Z,65.30
2018-09-07T03:12:42.949Z,65.50
2018-09-07T03:14:46.027Z,67.10
2018-09-07T03:16:49.071Z,67.80
2018-09-07T03:18:52.190Z,68.20
2018-09-07T03:20:55.385Z,69.10
2018-09-07T03:22:58.535Z,69.40
2018-09-07T03:25:02.047Z,67.90
2018-09-07T03:27:05.153Z,69.80
2018-09-07T03:29:08.293Z,70.10
2018-09-07T03:31:11.581Z,70.10
2018-09-07T03:33:14.916Z,70.60
2018-09-07T03:35:19.502Z,71.20
2018-09-07T03:37:23.345Z,70.30
2018-09-07T03:39:26.674Z,70.00
2018-09-07T03:41:29.904Z,69.80
2018-09-07T03:43:33.745Z,69.90
2018-09-07T03:45:36.879Z,69.70
2018-09-07T03:47:40.202Z,69.10
2018-09-07T03:49:43.821Z,70.10
2018-09-07T03:51:47.153Z,69.80
2018-09-07T03:53:50.504Z,70.20
2018-09-07T03:55:54.174Z,70.80
2018-09-07T03:57:57.779Z,70.40
2018-09-07T04:00:01.157Z,70.40
2018-09-07T04:02:04.575Z,69.30
2018-09-07T04:04:08.284Z,69.80
2018-09-07T04:06:11.464Z,71.40
2018-09-07T04:08:14.661Z,71.40
2018-09-07T04:10:18.036Z,71.00
2018-09-07T04:12:21.353Z,72.50
2018-09-07T04:14:24.546Z,72.00
2018-09-07T04:16:34.967Z,71.50
2018-09-07T04:18:39.309Z,72.50
2018-09-07T04:20:43.384Z,71.40
2018-09-07T04:22:47.100Z,71.50
2018-09-07T04:24:50.710Z,70.60
2018-09-07T04:26:54.910Z,70.90
2018-09-07T04:28:58.374Z,70.50
2018-09-07T04:31:01.996Z,71.60
2018-09-07T04:33:06.442Z,72.30
2018-09-07T04:35:10.199Z,71.60
2018-09-07T04:37:14.068Z,72.40
2018-09-07T04:39:17.519Z,73.40
2018-09-07T04:41:20.969Z,72.70
2018-09-07T04:43:24.522Z,72.20
2018-09-07T04:45:28.194Z,72.20
2018-09-07T04:47:31.645Z,71.70
2018-09-07T04:49:34.861Z,72.50
2018-09-07T04:51:38.265Z,72.50
2018-09-07T04:53:41.887Z,71.40
2018-09-07T04:55:46.023Z,71.10
2018-09-07T04:57:49.422Z,72.40
2018-09-07T04:59:53.480Z,71.00
2018-09-07T05:01:57.592Z,71.50
2018-09-07T05:04:01.769Z,73.10
2018-09-07T05:06:30.702Z,72.70
2018-09-07T05:08:36.155Z,72.80
2018-09-07T05:10:39.740Z,73.90
2018-09-07T05:12:43.173Z,73.20
2018-09-07T05:14:46.447Z,73.60
2018-09-07T05:16:49.996Z,74.10
2018-09-07T05:18:53.499Z,74.20
2018-09-07T05:20:57.251Z,73.80
2018-09-07T05:23:00.840Z,73.60
2018-09-07T05:25:06.258Z,73.50
2018-09-07T05:27:09.749Z,74.10
2018-09-07T05:29:13.290Z,74.60
2018-09-07T05:31:16.815Z,74.10
2018-09-07T05:33:20.039Z,74.80
2018-09-07T05:35:23.591Z,74.10
2018-09-07T05:37:26.937Z,74.00
2018-09-07T05:39:30.721Z,74.40
2018-09-07T05:41:35.535Z,74.30
2018-09-07T05:43:38.793Z,72.70
2018-09-07T05:45:42.295Z,74.10
2018-09-07T05:47:45.806Z,73.80
2018-09-07T05:49:49.344Z,73.30
2018-09-07T05:51:52.835Z,73.50
2018-09-07T05:53:56.447Z,73.80
2018-09-07T05:56:00.001Z,73.20
2018-09-07T05:58:04.900Z,73.60
2018-09-07T06:00:10.410Z,73.90
2018-09-07T06:02:13.702Z,73.70
2018-09-07T06:04:17.075Z,73.50
2018-09-07T06:06:20.710Z,74.00
2018-09-07T06:08:23.950Z,72.40
2018-09-07T06:10:27.519Z,72.40
2018-09-07T06:12:31.168Z,74.00
2018-09-07T06:14:36.058Z,74.20
2018-09-07T06:16:39.356Z,74.50
2018-09-07T06:18:42.742Z,73.80
2018-09-07T06:20:46.038Z,74.10
2018-09-07T06:22:49.292Z,74.10
2018-09-07T06:24:52.802Z,73.80
2018-09-07T06:26:56.151Z,74.00
2018-09-07T06:28:59.534Z,74.00
2018-09-07T06:31:04.701Z,74.20
2018-09-07T06:33:08.190Z,73.90
2018-09-07T06:35:11.869Z,73.70
2018-09-07T06:37:15.243Z,74.70
2018-09-07T06:39:18.684Z,74.50
2018-09-07T06:41:22.147Z,74.80
2018-09-07T06:43:35.364Z,74.80
2018-09-07T06:45:38.703Z,74.80
2018-09-07T06:47:42.218Z,74.60
2018-09-07T06:49:45.405Z,75.60
2018-09-07T06:51:54.421Z,75.40
2018-09-07T06:53:57.800Z,75.20
2018-09-07T06:56:01.050Z,75.50
2018-09-07T06:58:04.563Z,75.50
2018-09-07T07:00:07.866Z,75.50
2018-09-07T07:02:10.904Z,75.80
2018-09-07T07:04:13.986Z,76.10
2018-09-07T07:06:17.005Z,76.50
2018-09-07T07:08:20.112Z,76.60
2018-09-07T07:10:23.144Z,76.00
2018-09-07T07:12:27.417Z,77.40
2018-09-07T07:14:30.510Z,76.70
2018-09-07T07:16:33.629Z,76.90
2018-09-07T07:18:36.878Z,77.40
2018-09-07T07:20:39.962Z,77.30
2018-09-07T07:22:43.033Z,77.90
2018-09-07T07:24:46.177Z,77.80
2018-09-07T07:26:49.256Z,76.30
2018-09-07T07:28:52.589Z,76.70
2018-09-07T07:30:55.705Z,76.90
2018-09-07T07:32:58.801Z,77.50
2018-09-07T07:35:01.889Z,76.80
2018-09-07T07:37:05.053Z,76.60
2018-09-07T07:39:08.268Z,76.90
2018-09-07T07:41:11.827Z,77.40
2018-09-07T07:43:14.900Z,76.90
2018-09-07T07:45:17.960Z,76.30
2018-09-07T07:47:21.058Z,77.10
2018-09-07T07:49:24.099Z,76.70
2018-09-07T07:51:27.163Z,77.50
2018-09-07T07:53:30.258Z,76.80
2018-09-07T07:55:33.302Z,77.30
2018-09-07T07:57:36.318Z,77.80
2018-09-07T07:59:39.421Z,77.20
2018-09-07T08:01:42.521Z,77.30
2018-09-07T08:03:45.658Z,78.00
2018-09-07T08:05:55.032Z,77.00
2018-09-07T08:07:58.109Z,77.80
2018-09-07T08:10:01.192Z,77.20
2018-09-07T08:12:04.281Z,77.30
2018-09-07T08:14:07.327Z,76.90
2018-09-07T08:16:10.534Z,76.60
2018-09-07T08:18:13.561Z,77.70
2018-09-07T08:20:16.636Z,76.80
2018-09-07T08:22:19.758Z,77.40
2018-09-07T08:24:23.004Z,77.30
2018-09-07T08:26:32.165Z,76.50
2018-09-07T08:28:41.202Z,76.80
2018-09-07T08:30:51.004Z,76.70
2018-09-07T08:32:54.379Z,77.50
2018-09-07T08:34:57.245Z,78.30
2018-09-07T08:37:00.272Z,78.00
2018-09-07T08:39:04.698Z,77.10
2018-09-07T08:41:13.520Z,77.90
2018-09-07T08:43:22.855Z,79.10
2018-09-07T08:45:31.994Z,79.50
2018-09-07T08:47:34.941Z,78.40
2018-09-07T08:49:37.868Z,79.10
2018-09-07T08:51:40.838Z,78.50
2018-09-07T08:53:43.866Z,77.50
2018-09-07T08:55:46.860Z,78.90
2018-09-07T08:57:51.083Z,77.70
2018-09-07T08:59:54.446Z,78.30
2018-09-07T09:01:57.434Z,78.70
2018-09-07T09:04:00.693Z,77.30
2018-09-07T09:06:04.002Z,76.80
2018-09-07T09:08:13.039Z,76.70
2018-09-07T09:10:22.162Z,77.40
2018-09-07T09:12:31.309Z,77.30
2018-09-07T09:14:34.293Z,77.30
2018-09-07T09:16:37.315Z,77.00
2018-09-07T09:18:40.429Z,76.50
2018-09-07T09:20:43.490Z,77.20
2018-09-07T09:22:46.506Z,77.00
2018-09-07T09:24:49.601Z,74.50
2018-09-07T09:26:52.688Z,75.60
2018-09-07T09:28:55.783Z,75.80
2018-09-07T09:30:58.817Z,76.20
2018-09-07T09:33:02.049Z,74.70
2018-09-07T09:35:05.094Z,75.10
2018-09-07T09:37:08.161Z,74.70
2018-09-07T09:39:11.807Z,73.80
2018-09-07T09:41:14.815Z,73.90
2018-09-07T09:43:17.812Z,72.40
2018-09-07T09:45:20.868Z,73.20
2018-09-07T09:47:23.971Z,72.80
2018-09-07T09:49:26.985Z,73.00
2018-09-07T09:51:30.002Z,72.50
2018-09-07T09:53:33.050Z,73.30
2018-09-07T09:55:36.080Z,72.30
2018-09-07T09:57:39.099Z,72.30
2018-09-07T09:59:42.163Z,73.50
2018-09-07T10:02:48.232Z,72.40
2018-09-07T10:04:51.317Z,71.80
2018-09-07T10:06:54.335Z,73.10
2018-09-07T10:08:57.590Z,74.00
2018-09-07T10:11:00.942Z,73.50
2018-09-07T10:13:04.012Z,72.10
2018-09-07T10:15:07.092Z,71.80
2018-09-07T10:17:10.165Z,72.40
2018-09-07T10:19:13.327Z,73.00
2018-09-07T10:21:16.369Z,72.60
2018-09-07T10:23:19.633Z,73.00
2018-09-07T10:25:22.709Z,73.10
2018-09-07T10:27:26.856Z,72.70
2018-09-07T10:29:30.181Z,72.40
2018-09-07T10:31:39.315Z,72.50
2018-09-07T10:33:48.506Z,72.80
2018-09-07T10:35:57.989Z,73.20
2018-09-07T10:38:01.307Z,73.40
2018-09-07T10:40:04.729Z,74.00
2018-09-07T10:42:08.127Z,72.00
2018-09-07T10:44:11.547Z,72.20
2018-09-07T10:46:21.427Z,71.60
2018-09-07T10:48:24.634Z,70.10
2018-09-07T10:50:27.891Z,71.00
2018-09-07T10:52:31.201Z,71.60
2018-09-07T10:54:34.475Z,71.50
2018-09-07T10:56:37.659Z,71.90
2018-09-07T10:58:40.939Z,71.30
2018-09-07T11:00:44.240Z,69.80
2018-09-07T11:02:47.568Z,70.60
2018-09-07T11:04:51.182Z,69.80
2018-09-07T11:06:54.355Z,70.20
2018-09-07T11:08:58.110Z,71.50
2018-09-07T11:11:01.308Z,68.50
2018-09-07T11:13:04.466Z,69.00
2018-09-07T11:15:07.625Z,71.60
2018-09-07T11:17:10.770Z,69.20
2018-09-07T11:19:13.918Z,69.80
2018-09-07T11:21:17.158Z,69.80
2018-09-07T11:23:20.417Z,69.60
2018-09-07T11:25:23.545Z,68.50
2018-09-07T11:27:26.819Z,66.70
2018-09-07T11:29:31.231Z,66.50
2018-09-07T11:31:34.889Z,65.80
2018-09-07T11:33:38.218Z,66.90
2018-09-07T11:35:41.282Z,66.30
2018-09-07T11:37:45.397Z,66.60
2018-09-07T11:39:48.570Z,66.20
2018-09-07T11:41:51.706Z,64.80
2018-09-07T11:43:55.094Z,65.90
2018-09-07T11:46:13.205Z,64.10
2018-09-07T11:48:18.051Z,62.20
2018-09-07T11:50:29.274Z,62.60
2018-09-07T11:52:33.915Z,62.50
2018-09-07T11:54:37.411Z,62.70
2018-09-07T11:56:41.026Z,61.50
2018-09-07T11:58:44.584Z,62.30
2018-09-07T12:00:48.142Z,62.10
2018-09-07T12:02:58.210Z,62.10
2018-09-07T12:05:02.180Z,59.40
2018-09-07T12:07:09.732Z,57.80
2018-09-07T12:09:20.174Z,58.20
2018-09-07T12:11:24.576Z,57.10
2018-09-07T12:13:37.969Z,57.70
2018-09-07T12:15:44.217Z,57.20
2018-09-07T12:17:49.591Z,56.50
2018-09-07T12:19:58.754Z,55.30
2018-09-07T12:22:10.051Z,56.90
2018-09-07T12:24:18.954Z,55.80
2018-09-07T12:26:33.381Z,58.00
2018-09-07T12:28:51.370Z,57.10
2018-09-07T12:31:15.941Z,58.00
2018-09-07T12:33:32.806Z,56.60
2018-09-07T12:35:51.537Z,55.90
2018-09-07T12:38:08.207Z,55.30
2018-09-07T12:40:55.539Z,54.40
2018-09-07T12:43:22.260Z,52.80
2018-09-07T12:51:34.788Z,51.70
2018-09-07T12:55:40.431Z,52.70
2018-09-07T13:05:39.924Z,54.40
2018-09-07T13:07:43.696Z,53.10
2018-09-07T13:09:47.966Z,54.40
2018-09-07T13:11:52.145Z,54.00
2018-09-07T13:13:55.899Z,54.50
2018-09-07T13:15:59.818Z,55.20
2018-09-07T13:18:05.378Z,54.80
2018-09-07T13:20:08.907Z,55.90
2018-09-07T13:22:12.624Z,53.90
2018-09-07T13:24:19.220Z,54.30
2018-09-07T13:26:22.958Z,53.50
2018-09-07T13:28:26.831Z,54.60
2018-09-07T13:30:30.487Z,53.30
2018-09-07T13:32:35.522Z,54.00
2018-09-07T13:34:39.179Z,50.80
2018-09-07T13:36:42.811Z,52.70
2018-09-07T13:38:46.498Z,50.80
2018-09-07T13:40:50.085Z,50.70
2018-09-07T13:42:53.869Z,51.20
2018-09-07T13:44:57.498Z,51.40
2018-09-07T13:47:01.438Z,49.30
2018-09-07T13:49:05.352Z,49.80
2018-09-07T13:51:09.149Z,50.00
2018-09-07T13:53:13.251Z,49.40
2018-09-07T13:55:16.814Z,48.80
2018-09-07T13:57:20.458Z,49.40
2018-09-07T13:59:24.038Z,49.80
2018-09-07T14:01:27.701Z,49.00
2018-09-07T14:03:31.424Z,49.70
2018-09-07T14:05:35.074Z,49.70
2018-09-07T14:07:38.893Z,47.20
2018-09-07T14:09:44.434Z,48.00
2018-09-07T14:11:48.098Z,46.50
2018-09-07T14:13:52.022Z,48.00
2018-09-07T14:15:56.077Z,48.00
2018-09-07T14:17:59.912Z,49.30
2018-09-07T14:20:03.576Z,50.10
2018-09-07T14:22:07.219Z,50.10
2018-09-07T14:24:15.558Z,47.70
2018-09-07T14:26:21.464Z,49.00
2018-09-07T14:28:26.467Z,48.60
2018-09-07T14:30:49.974Z,47.10
2018-09-07T14:33:09.174Z,48.10
2018-09-07T14:50:21.082Z,45.00
2018-09-07T14:52:24.942Z,45.30
2018-09-07T14:54:29.665Z,46.40
2018-09-07T14:56:33.226Z,45.80
2018-09-07T14:58:36.931Z,45.90
2018-09-07T15:00:40.475Z,46.70
2018-09-07T15:02:45.229Z,46.00
2018-09-07T15:04:52.754Z,45.20
2018-09-07T15:06:56.473Z,44.40
2018-09-07T15:09:00.057Z,46.10
2018-09-07T15:11:07.603Z,45.80
2018-09-07T15:13:11.039Z,45.70
2018-09-07T15:15:16.411Z,47.10
2018-09-07T15:17:19.889Z,46.10
2018-09-07T15:19:23.619Z,47.80
2018-09-07T15:21:27.146Z,46.30
2018-09-07T15:23:30.952Z,47.30
2018-09-07T15:25:34.975Z,47.50
2018-09-07T15:27:38.592Z,47.90
2018-09-07T15:29:42.245Z,48.00
2018-09-07T15:31:46.049Z,49.20
2018-09-07T15:33:49.216Z,47.80
2018-09-07T15:35:52.424Z,47.60
2018-09-07T15:37:55.668Z,47.90
2018-09-07T15:39:58.835Z,48.60
2018-09-07T15:42:06.904Z,48.90
2018-09-07T15:44:17.276Z,49.00
2018-09-07T15:46:20.646Z,49.00
2018-09-07T15:48:23.828Z,49.10
2018-09-07T15:50:27.095Z,48.80
2018-09-07T15:52:40.487Z,49.10
2018-09-07T15:54:46.439Z,49.40
2018-09-07T15:56:51.651Z,49.90
2018-09-07T15:58:59.039Z,49.80
2018-09-07T16:01:06.894Z,49.60
2018-09-07T16:03:22.017Z,50.20
2018-09-07T16:05:28.028Z,50.60
2018-09-07T16:07:32.812Z,50.50
2018-09-07T16:09:51.361Z,50.00
2018-09-07T16:12:04.259Z,50.10
2018-09-07T16:14:14.197Z,50.20
2018-09-07T16:16:25.238Z,49.70
2018-09-07T16:18:32.592Z,50.20
2018-09-07T16:20:42.968Z,50.30
2018-09-07T16:22:50.825Z,50.40
2018-09-07T16:25:00.441Z,50.70
2018-09-07T16:27:09.798Z,50.70
2018-09-07T16:29:20.375Z,51.00
2018-09-07T16:31:29.154Z,51.10
2018-09-07T16:33:36.643Z,50.80
2018-09-07T16:35:47.411Z,50.70
2018-09-07T16:37:54.916Z,50.50
2018-09-07T16:40:07.672Z,50.80
2018-09-07T16:42:19.219Z,50.30
2018-09-07T16:44:25.336Z,50.50
2018-09-07T16:46:31.697Z,50.60
2018-09-07T16:48:38.281Z,49.80
2018-09-07T16:50:52.216Z,50.60
2018-09-07T16:53:00.837Z,50.50
2018-09-07T16:55:07.588Z,50.50
2018-09-07T16:57:20.095Z,50.40
2018-09-07T16:59:27.812Z,51.40
2018-09-07T17:03:49.682Z,50.00
2018-09-07T17:05:59.382Z,51.00
2018-09-07T17:08:03.769Z,51.20
2018-09-07T17:10:07.808Z,50.80
2018-09-07T17:12:13.847Z,50.10
2018-09-07T17:14:23.888Z,50.10
2018-09-07T17:16:34.251Z,51.20
2018-09-07T17:18:44.560Z,50.50
2018-09-07T17:23:28.348Z,52.30
2018-09-07T17:25:31.535Z,52.20
2018-09-07T17:27:34.882Z,52.10
2018-09-07T17:29:38.456Z,52.20
2018-09-07T17:31:42.026Z,52.80
2018-09-07T17:33:47.241Z,52.60
2018-09-07T17:35:50.807Z,52.80
2018-09-07T17:37:54.436Z,52.20
2018-09-07T17:39:58.065Z,52.40
2018-09-07T17:42:01.734Z,52.40
2018-09-07T17:44:05.339Z,52.30
2018-09-07T17:46:09.077Z,52.60
2018-09-07T17:48:14.321Z,52.10
2018-09-07T17:50:17.884Z,51.30
2018-09-07T17:52:21.804Z,52.30
2018-09-07T17:54:25.714Z,51.80
2018-09-07T17:56:29.881Z,51.80
2018-09-07T17:58:33.599Z,52.00
2018-09-07T18:00:37.167Z,52.50
2018-09-07T18:02:40.777Z,52.40
2018-09-07T18:04:45.303Z,52.00
2018-09-07T18:06:49.151Z,52.30
2018-09-07T18:08:53.068Z,52.10
2018-09-07T18:10:56.767Z,52.00
2018-09-07T18:13:00.317Z,52.40
2018-09-07T18:15:03.905Z,53.10
2018-09-07T18:17:07.473Z,52.50
2018-09-07T18:19:11.084Z,51.80
2018-09-07T18:21:16.428Z,52.30
2018-09-07T18:23:19.928Z,49.90
2018-09-07T18:25:24.204Z,49.50
2018-09-07T18:27:27.859Z,49.10
2018-09-07T18:29:31.199Z,48.90
2018-09-07T18:31:34.751Z,48.90
2018-09-07T18:33:38.024Z,48.80
2018-09-07T18:35:41.788Z,48.90
2018-09-07T18:37:46.638Z,48.90
2018-09-07T18:39:50.133Z,49.00
2018-09-07T18:41:57.822Z,47.90
2018-09-07T18:44:01.589Z,47.90
2018-09-07T18:46:04.876Z,47.90
2018-09-07T18:48:08.381Z,48.00
2018-09-07T18:50:11.692Z,48.20
2018-09-07T18:52:16.572Z,48.90
2018-09-07T18:54:20.108Z,49.10
2018-09-07T18:56:23.693Z,49.00
2018-09-07T18:58:27.069Z,48.30
2018-09-07T19:00:30.640Z,48.50
2018-09-07T19:02:34.348Z,48.70
2018-09-07T19:04:41.161Z,48.90
2018-09-07T19:06:58.071Z,48.10
2018-09-07T19:09:05.737Z,47.90
2018-09-07T19:11:09.962Z,47.80
2018-09-07T19:13:22.682Z,47.30
2018-09-07T19:15:30.583Z,47.50
2018-09-07T19:17:40.873Z,47.00
2018-09-07T19:19:49.804Z,47.50
2018-09-07T19:21:54.837Z,47.10
2018-09-07T19:23:58.444Z,46.40
2018-09-07T19:26:03.354Z,46.80
2018-09-07T19:28:06.964Z,46.50
2018-09-07T19:30:10.368Z,46.30
2018-09-07T19:32:14.461Z,46.90
2018-09-07T19:34:17.870Z,47.00
2018-09-07T19:36:21.366Z,47.40
2018-09-07T19:38:24.736Z,47.40
2018-09-07T19:40:28.044Z,47.50
2018-09-07T19:42:31.481Z,47.50
2018-09-07T19:44:34.923Z,47.40
2018-09-07T19:46:38.311Z,46.50
2018-09-07T19:48:42.011Z,47.10
2018-09-07T19:50:47.635Z,47.20
2018-09-07T19:52:51.117Z,46.80
2018-09-07T19:54:54.725Z,46.30
2018-09-07T19:56:58.559Z,46.90
2018-09-07T19:59:02.374Z,46.20
2018-09-07T20:01:08.078Z,46.60
2018-09-07T20:03:11.958Z,46.40
2018-09-07T20:05:15.926Z,46.20
2018-09-07T20:07:19.924Z,46.50
2018-09-07T20:09:23.517Z,46.80
2018-09-07T20:11:26.936Z,46.80
2018-09-07T20:13:30.564Z,46.60
2018-09-07T20:15:33.905Z,46.60
2018-09-07T20:17:37.603Z,46.50
2018-09-07T20:19:41.139Z,46.60
2018-09-07T20:21:51.021Z,47.00
2018-09-07T20:24:09.598Z,46.70
2018-09-07T20:26:17.022Z,46.80
2018-09-07T20:28:26.846Z,46.10
2018-09-07T20:30:36.305Z,46.30
2018-09-07T20:32:46.663Z,46.60
2018-09-07T20:34:56.237Z,47.00
2018-09-07T20:37:05.824Z,47.10
2018-09-07T20:39:16.725Z,47.10
2018-09-07T20:41:26.112Z,47.60
2018-09-07T20:43:35.568Z,48.10
2018-09-07T20:45:46.550Z,47.80
2018-09-07T20:47:49.828Z,48.10
2018-09-07T20:49:53.289Z,48.50
2018-09-07T20:51:56.584Z,49.30
2018-09-07T20:53:59.825Z,49.70
2018-09-07T20:56:03.205Z,49.90
2018-09-07T20:58:06.594Z,50.40
2018-09-07T21:00:10.048Z,50.60
2018-09-07T21:02:14.758Z,50.80
2018-09-07T21:04:18.053Z,51.10
2018-09-07T21:06:21.314Z,51.20
2018-09-07T21:08:24.744Z,51.40
2018-09-07T21:10:28.205Z,51.50
2018-09-07T21:12:31.646Z,51.90
2018-09-07T21:14:35.104Z,52.20
2018-09-07T21:16:38.592Z,52.70
2018-09-07T21:18:41.816Z,52.60
2018-09-07T21:20:46.889Z,53.00
2018-09-07T21:22:50.372Z,53.20
2018-09-07T21:24:53.796Z,53.20
2018-09-07T21:26:57.382Z,53.30
2018-09-07T21:29:00.789Z,53.10
2018-09-07T21:31:04.027Z,53.50
2018-09-07T21:33:07.808Z,53.40
2018-09-07T21:35:11.163Z,53.40
2018-09-07T21:37:16.580Z,53.70
2018-09-07T21:39:19.846Z,53.00
2018-09-07T21:41:23.251Z,53.00
2018-09-07T21:43:26.498Z,53.40
2018-09-07T21:45:30.277Z,53.60
2018-09-07T21:47:33.822Z,53.30
2018-09-07T21:49:44.736Z,54.10
2018-09-07T21:51:48.439Z,53.50
2018-09-07T21:53:57.695Z,53.70
2018-09-07T21:56:01.107Z,53.90
2018-09-07T21:58:04.636Z,54.20
2018-09-07T22:00:08.599Z,54.40
2018-09-07T22:02:23.652Z,54.60
2018-09-07T22:04:26.948Z,54.70
2018-09-07T22:06:30.129Z,54.80
2018-09-07T22:08:39.537Z,54.90
2018-09-07T22:10:48.825Z,55.20
2018-09-07T22:12:58.217Z,55.00
2018-09-07T22:15:07.736Z,55.40
2018-09-07T22:17:17.926Z,55.80
2018-09-07T22:19:27.344Z,55.80
2018-09-07T22:21:30.796Z,56.10
2018-09-07T22:23:34.237Z,55.90
2018-09-07T22:25:37.537Z,56.40
2018-09-07T22:27:40.803Z,56.50
2018-09-07T22:29:45.033Z,56.30
2018-09-07T22:31:48.272Z,56.80
2018-09-07T22:33:52.135Z,56.90
2018-09-07T22:35:55.365Z,57.20
2018-09-07T22:38:00.833Z,57.10
2018-09-07T22:40:11.909Z,57.30
2018-09-07T22:42:17.502Z,58.10
2018-09-07T22:46:40.588Z,58.70
2018-09-07T22:48:45.493Z,58.40
2018-09-07T22:50:55.001Z,57.20
2018-09-07T22:53:04.510Z,58.30
2018-09-07T22:55:07.936Z,57.90
2018-09-07T22:57:17.308Z,57.70
2018-09-07T22:59:20.613Z,57.30
2018-09-07T23:01:25.017Z,58.30
2018-09-07T23:03:28.301Z,58.70
2018-09-07T23:05:31.571Z,59.20
2018-09-07T23:07:42.100Z,58.20
2018-09-07T23:09:51.492Z,58.50
2018-09-07T23:12:00.895Z,58.80
2018-09-07T23:14:10.245Z,58.30
2018-09-07T23:16:15.468Z,59.20
2018-09-07T23:18:18.755Z,58.60
2018-09-07T23:20:22.300Z,59.60
2018-09-07T23:22:31.750Z,59.90
2018-09-07T23:24:41.085Z,59.40
2018-09-07T23:26:46.024Z,60.60
2018-09-07T23:28:49.287Z,59.80
2018-09-07T23:30:52.495Z,60.20
2018-09-07T23:32:55.749Z,60.00
2018-09-07T23:34:59.054Z,59.30
2018-09-07T23:37:02.481Z,58.70
2018-09-07T23:39:08.992Z,59.70
2018-09-07T23:41:12.349Z,59.40
2018-09-07T23:43:17.351Z,59.30
2018-09-07T23:45:20.626Z,59.30
2018-09-07T23:47:24.221Z,59.20
2018-09-07T23:49:27.486Z,58.70
2018-09-07T23:51:30.764Z,58.10
2018-09-07T23:53:34.313Z,58.90
2018-09-07T23:55:37.529Z,58.50
2018-09-07T23:57:40.665Z,59.10
2018-09-07T23:59:45.956Z,58.50
